createdAt,value
2022-09-12T00:01:51.988Z,3.45
2022-09-12T00:04:18.669Z,3.50
2022-09-12T00:06:45.388Z,3.00
2022-09-12T00:09:13.914Z,3.20
2022-09-12T00:11:45.871Z,2.72
2022-09-12T00:14:16.284Z,2.72
2022-09-12T00:16:43.518Z,2.50
2022-09-12T00:19:11.312Z,2.67
2022-09-12T00:21:39.244Z,2.58
2022-09-12T00:24:06.827Z,2.30
2022-09-12T00:26:33.785Z,2.17
2022-09-12T00:29:00.352Z,2.28
2022-09-12T00:31:27.745Z,2.10
2022-09-12T00:33:57.413Z,2.30
2022-09-12T00:36:25.783Z,2.20
2022-09-12T00:38:53.542Z,2.47
2022-09-12T00:41:23.143Z,2.50
2022-09-12T00:44:16.211Z,2.90
2022-09-12T00:46:47.152Z,2.80
2022-09-12T00:49:17.098Z,2.90
2022-09-12T00:51:51.596Z,2.65
2022-09-12T00:54:24.219Z,2.53
2022-09-12T00:56:53.780Z,2.72
2022-09-12T00:59:25.670Z,2.60
2022-09-12T01:01:53.029Z,2.72
2022-09-12T01:04:23.595Z,2.58
2022-09-12T01:06:51.938Z,2.40
2022-09-12T01:09:21.871Z,2.45
2022-09-12T01:11:50.394Z,2.58
2022-09-12T01:14:18.902Z,2.58
2022-09-12T01:16:47.284Z,2.42
2022-09-12T01:19:39.631Z,2.42
2022-09-12T01:22:25.112Z,2.47
2022-09-12T01:25:04.130Z,2.50
2022-09-12T01:27:57.875Z,2.60
2022-09-12T01:30:52.939Z,2.72
2022-09-12T01:33:22.545Z,2.80
2022-09-12T01:36:27.665Z,2.42
2022-09-12T01:39:06.045Z,2.38
2022-09-12T01:42:10.342Z,2.40
2022-09-12T01:44:40.100Z,2.30
2022-09-12T01:47:17.234Z,2.30
2022-09-12T01:50:05.186Z,2.38
2022-09-12T01:52:32.300Z,2.25
2022-09-12T01:55:09.742Z,2.08
2022-09-12T01:57:52.859Z,2.42
2022-09-12T02:00:20.373Z,2.08
2022-09-12T02:03:19.310Z,2.28
2022-09-12T02:05:55.651Z,2.17
2022-09-12T02:09:06.835Z,2.20
2022-09-12T02:11:38.779Z,2.40
2022-09-12T02:14:16.640Z,2.15
2022-09-12T02:16:48.959Z,2.20
2022-09-12T02:19:27.305Z,2.35
2022-09-12T02:21:57.138Z,2.38
2022-09-12T02:24:30.165Z,2.15
2022-09-12T02:27:14.062Z,2.40
2022-09-12T02:29:41.640Z,2.50
2022-09-12T02:32:27.761Z,2.67
2022-09-12T02:35:13.699Z,2.35
2022-09-12T02:37:46.390Z,2.38
2022-09-12T02:40:14.045Z,2.30
2022-09-12T02:42:40.819Z,2.30
2022-09-12T02:45:08.178Z,2.53
2022-09-12T02:47:42.183Z,2.40
2022-09-12T02:50:09.232Z,2.78
2022-09-12T02:52:36.771Z,2.60
2022-09-12T02:55:06.132Z,2.70
2022-09-12T02:57:33.077Z,2.25
2022-09-12T03:00:01.941Z,2.40
2022-09-12T03:02:34.533Z,2.42
2022-09-12T03:05:08.428Z,2.75
2022-09-12T03:07:54.240Z,2.78
2022-09-12T03:10:39.563Z,2.88
2022-09-12T03:13:15.092Z,2.72
2022-09-12T03:15:58.532Z,2.63
2022-09-12T03:19:03.826Z,2.45
2022-09-12T03:21:44.742Z,2.83
2022-09-12T03:24:17.364Z,2.70
2022-09-12T03:26:58.882Z,1.90
2022-09-12T03:29:28.026Z,2.47
2022-09-12T03:31:56.968Z,2.65
2022-09-12T03:34:25.753Z,2.60
2022-09-12T03:36:52.850Z,2.90
2022-09-12T03:39:20.423Z,2.47
2022-09-12T03:41:46.976Z,2.58
2022-09-12T03:44:13.559Z,2.70
2022-09-12T03:46:40.102Z,2.85
2022-09-12T03:49:06.698Z,3.00
2022-09-12T03:51:33.327Z,2.55
2022-09-12T03:53:59.970Z,2.70
2022-09-12T03:56:26.547Z,2.85
2022-09-12T03:58:53.054Z,2.75
2022-09-12T04:01:20.647Z,2.60
2022-09-12T04:03:49.965Z,2.55
2022-09-12T04:06:19.979Z,2.80
2022-09-12T04:08:52.097Z,2.25
2022-09-12T04:11:20.141Z,2.60
2022-09-12T04:13:47.246Z,2.15
2022-09-12T04:16:15.631Z,2.70
2022-09-12T04:18:42.562Z,2.80
2022-09-12T04:21:12.593Z,2.80
2022-09-12T04:23:39.372Z,3.20
2022-09-12T04:26:06.735Z,2.42
2022-09-12T04:28:35.115Z,2.42
2022-09-12T04:31:23.549Z,1.92
2022-09-12T04:33:55.404Z,2.38
2022-09-12T04:36:23.442Z,3.00
2022-09-12T04:38:50.449Z,2.80
2022-09-12T04:41:32.040Z,2.80
2022-09-12T04:44:02.348Z,3.00
2022-09-12T04:46:31.950Z,2.10
2022-09-12T04:48:58.789Z,2.75
2022-09-12T04:51:33.895Z,2.40
2022-09-12T04:54:05.318Z,3.00
2022-09-12T04:56:34.391Z,2.40
2022-09-12T04:59:03.757Z,3.50
2022-09-12T05:01:30.654Z,3.72
2022-09-12T05:03:59.857Z,2.83
2022-09-12T05:06:30.216Z,2.60
2022-09-12T05:08:58.511Z,2.90
2022-09-12T05:11:41.168Z,2.90
2022-09-12T05:14:13.883Z,2.75
2022-09-12T05:16:41.197Z,2.72
2022-09-12T05:19:07.909Z,3.10
2022-09-12T05:21:34.457Z,2.90
2022-09-12T05:24:01.182Z,3.80
2022-09-12T05:26:28.027Z,3.22
2022-09-12T05:28:55.073Z,3.58
2022-09-12T05:31:27.179Z,3.20
2022-09-12T05:36:31.476Z,3.60
2022-09-12T05:39:00.155Z,3.63
2022-09-12T05:41:32.954Z,3.45
2022-09-12T05:44:02.468Z,3.15
2022-09-12T05:46:31.870Z,2.38
2022-09-12T05:49:03.960Z,2.75
2022-09-12T05:51:34.560Z,2.53
2022-09-12T05:54:03.352Z,2.95
2022-09-12T05:56:33.229Z,3.35
2022-09-12T05:59:05.656Z,3.65
2022-09-12T06:01:33.832Z,3.05
2022-09-12T06:04:04.442Z,3.20
2022-09-12T06:06:32.571Z,3.17
2022-09-12T06:09:02.008Z,3.50
2022-09-12T06:11:31.235Z,3.10
2022-09-12T06:13:59.043Z,3.30
2022-09-12T06:16:29.657Z,3.15
2022-09-12T06:18:58.292Z,3.50
2022-09-12T06:21:26.767Z,3.47
2022-09-12T06:23:54.810Z,3.72
2022-09-12T06:26:23.558Z,3.58
2022-09-12T06:28:50.699Z,3.10
2022-09-12T06:31:20.548Z,3.60
2022-09-12T06:33:51.121Z,3.55
2022-09-12T06:36:21.190Z,3.20
2022-09-12T06:38:49.479Z,3.28
2022-09-12T06:41:16.120Z,3.58
2022-09-12T06:43:43.210Z,3.60
2022-09-12T06:46:11.164Z,2.47
2022-09-12T06:48:41.771Z,3.00
2022-09-12T06:51:15.070Z,2.97
2022-09-12T06:53:43.078Z,3.08
2022-09-12T06:56:12.791Z,3.08
2022-09-12T06:58:40.597Z,2.70
2022-09-12T07:01:16.716Z,2.95
2022-09-12T07:03:50.397Z,2.70
2022-09-12T07:06:18.952Z,2.50
2022-09-12T07:08:45.959Z,2.60
2022-09-12T07:11:15.908Z,2.60
2022-09-12T07:13:44.286Z,2.00
2022-09-12T07:16:15.957Z,2.92
2022-09-12T07:18:50.122Z,2.58
2022-09-12T07:21:16.706Z,2.40
2022-09-12T07:23:45.724Z,2.10
2022-09-12T07:26:14.048Z,2.38
2022-09-12T07:28:41.116Z,1.92
2022-09-12T07:31:09.947Z,2.33
2022-09-12T07:33:37.975Z,2.08
2022-09-12T07:36:06.913Z,2.03
2022-09-12T07:38:33.497Z,1.90
2022-09-12T07:41:01.686Z,2.42
2022-09-12T07:43:28.305Z,2.78
2022-09-12T07:45:58.992Z,2.65
2022-09-12T07:48:25.628Z,2.60
2022-09-12T07:51:04.106Z,2.50
2022-09-12T07:53:36.978Z,2.00
2022-09-12T07:56:05.586Z,2.17
2022-09-12T07:58:33.989Z,2.70
2022-09-12T08:01:14.288Z,3.10
2022-09-12T08:03:42.853Z,2.70
2022-09-12T08:06:15.404Z,2.70
2022-09-12T08:08:43.001Z,2.45
2022-09-12T08:11:12.556Z,2.30
2022-09-12T08:13:40.724Z,2.58
2022-09-12T08:16:16.007Z,2.50
2022-09-12T08:18:42.626Z,2.38
2022-09-12T08:21:17.808Z,2.50
2022-09-12T08:23:45.929Z,2.13
2022-09-12T08:26:13.493Z,2.38
2022-09-12T08:28:41.091Z,2.95
2022-09-12T08:31:11.130Z,2.10
2022-09-12T08:33:38.535Z,2.40
2022-09-12T08:36:14.873Z,2.75
2022-09-12T08:38:43.883Z,2.40
2022-09-12T08:41:35.297Z,2.20
2022-09-12T08:44:19.829Z,2.40
2022-09-12T08:47:08.262Z,2.30
2022-09-12T08:49:41.886Z,2.10
2022-09-12T08:52:17.137Z,2.03
2022-09-12T08:54:47.648Z,2.08
2022-09-12T08:57:15.553Z,2.55
2022-09-12T08:59:44.885Z,1.90
2022-09-12T09:02:36.363Z,1.80
2022-09-12T09:05:21.623Z,2.03
2022-09-12T09:08:06.825Z,2.03
2022-09-12T09:10:54.139Z,2.95
2022-09-12T09:13:48.497Z,2.50
2022-09-12T09:16:34.970Z,2.33
2022-09-12T09:19:06.586Z,2.20
2022-09-12T09:21:41.292Z,2.40
2022-09-12T09:24:16.832Z,2.10
2022-09-12T09:26:53.183Z,1.92
2022-09-12T09:29:26.821Z,1.88
2022-09-12T09:31:56.004Z,2.10
2022-09-12T09:34:26.096Z,1.98
2022-09-12T09:37:19.240Z,2.33
2022-09-12T09:40:08.411Z,1.95
2022-09-12T09:42:54.179Z,1.80
2022-09-12T09:45:24.403Z,2.17
2022-09-12T09:48:13.632Z,2.35
2022-09-12T09:50:40.604Z,1.98
2022-09-12T09:53:15.016Z,2.00
2022-09-12T09:55:43.990Z,1.98
2022-09-12T09:58:10.792Z,2.00
2022-09-12T10:00:39.295Z,1.70
2022-09-12T10:03:15.779Z,1.83
2022-09-12T10:06:06.437Z,1.67
2022-09-12T10:08:35.801Z,1.90
2022-09-12T10:11:04.489Z,2.00
2022-09-12T10:14:01.380Z,1.77
2022-09-12T10:16:30.582Z,1.85
2022-09-12T10:18:59.292Z,1.88
2022-09-12T10:21:47.589Z,1.73
2022-09-12T10:24:30.922Z,1.55
2022-09-12T10:27:12.351Z,1.73
2022-09-12T10:29:50.160Z,1.63
2022-09-12T10:32:30.624Z,1.75
2022-09-12T10:35:01.734Z,1.92
2022-09-12T10:37:39.541Z,1.70
2022-09-12T10:40:20.507Z,1.90
2022-09-12T10:42:53.582Z,1.77
2022-09-12T10:45:32.350Z,1.52
2022-09-12T10:48:06.837Z,1.92
2022-09-12T10:50:42.343Z,1.80
2022-09-12T10:53:29.976Z,1.70
2022-09-12T10:56:10.471Z,1.70
2022-09-12T10:59:19.419Z,1.70
2022-09-12T11:01:59.967Z,1.70
2022-09-12T11:04:58.192Z,1.50
2022-09-12T11:07:43.900Z,1.45
2022-09-12T11:10:44.300Z,1.70
2022-09-12T11:13:47.103Z,1.83
2022-09-12T11:16:25.800Z,1.77
2022-09-12T11:19:11.127Z,1.60
2022-09-12T11:22:08.801Z,1.30
2022-09-12T11:24:48.967Z,1.75
2022-09-12T11:27:23.772Z,1.75
2022-09-12T11:30:09.383Z,1.48
2022-09-12T11:32:41.866Z,1.80
2022-09-12T11:35:26.054Z,1.58
2022-09-12T11:38:30.568Z,1.52
2022-09-12T11:41:14.210Z,1.60
2022-09-12T11:43:43.285Z,1.80
2022-09-12T11:46:18.240Z,1.60
2022-09-12T11:49:06.739Z,1.60
2022-09-12T11:51:43.322Z,1.75
2022-09-12T11:54:19.790Z,1.63
2022-09-12T11:56:48.759Z,1.50
2022-09-12T11:59:32.181Z,1.40
2022-09-12T12:02:00.835Z,1.23
2022-09-12T12:04:39.661Z,1.52
2022-09-12T12:07:11.993Z,1.38
2022-09-12T12:09:49.254Z,1.80
2022-09-12T12:12:22.583Z,1.40
2022-09-12T12:14:52.197Z,1.83
2022-09-12T12:17:24.256Z,1.40
2022-09-12T12:20:05.467Z,1.83
2022-09-12T12:22:33.767Z,1.50
2022-09-12T12:25:07.281Z,1.50
2022-09-12T12:27:52.406Z,1.42
2022-09-12T12:30:31.277Z,1.45
2022-09-12T12:33:13.311Z,1.60
2022-09-12T12:35:41.972Z,1.40
2022-09-12T12:38:32.464Z,1.80
2022-09-12T12:41:17.218Z,1.60
2022-09-12T12:43:46.068Z,1.70
2022-09-12T12:46:14.981Z,1.80
2022-09-12T12:49:02.422Z,1.17
2022-09-12T12:51:36.967Z,1.92
2022-09-12T12:54:39.845Z,1.45
2022-09-12T12:57:18.780Z,1.70
2022-09-12T13:00:08.865Z,1.50
2022-09-12T13:03:01.293Z,1.38
2022-09-12T13:05:30.664Z,1.33
2022-09-12T13:08:10.638Z,1.25
2022-09-12T13:10:38.150Z,1.40
2022-09-12T13:13:09.356Z,1.50
2022-09-12T13:15:39.480Z,1.48
2022-09-12T13:18:11.427Z,1.70
2022-09-12T13:23:32.717Z,1.33
2022-09-12T13:26:01.174Z,1.55
2022-09-12T13:28:31.504Z,1.50
2022-09-12T13:31:17.029Z,1.52
2022-09-12T13:33:48.491Z,1.40
2022-09-12T13:36:27.056Z,1.67
2022-09-12T13:39:02.429Z,1.30
2022-09-12T13:41:37.943Z,1.35
2022-09-12T13:44:09.770Z,1.50
2022-09-12T13:49:21.212Z,1.50
2022-09-12T13:52:15.199Z,1.30
2022-09-12T13:54:45.776Z,1.50
2022-09-12T13:57:30.556Z,1.40
2022-09-12T13:59:58.940Z,1.50
2022-09-12T14:02:28.793Z,1.63
2022-09-12T14:05:09.272Z,1.40
2022-09-12T14:07:45.550Z,1.58
2022-09-12T14:10:20.044Z,1.40
2022-09-12T14:12:50.815Z,1.55
2022-09-12T14:15:24.505Z,1.40
2022-09-12T14:18:01.402Z,1.50
2022-09-12T14:20:36.291Z,1.90
2022-09-12T14:23:33.177Z,1.70
2022-09-12T14:26:05.720Z,1.92
2022-09-12T14:28:33.915Z,1.55
2022-09-12T14:31:06.705Z,1.67
2022-09-12T14:33:55.982Z,1.77
2022-09-12T14:36:57.222Z,1.70
2022-09-12T14:39:26.373Z,1.33
2022-09-12T14:42:03.532Z,1.40
2022-09-12T14:44:31.227Z,1.40
2022-09-12T14:47:12.222Z,1.60
2022-09-12T14:49:38.870Z,1.40
2022-09-12T14:52:15.796Z,1.42
2022-09-12T14:54:44.381Z,1.60
2022-09-12T14:57:39.461Z,1.80
2022-09-12T15:00:17.855Z,1.52
2022-09-12T15:02:44.938Z,1.40
2022-09-12T15:05:11.455Z,1.40
2022-09-12T15:08:00.345Z,1.40
2022-09-12T15:10:45.192Z,1.30
2022-09-12T15:13:16.070Z,1.52
2022-09-12T15:15:45.930Z,1.90
2022-09-12T15:18:13.925Z,1.45
2022-09-12T15:20:42.989Z,1.70
2022-09-12T15:23:20.789Z,1.50
2022-09-12T15:25:47.898Z,1.67
2022-09-12T15:28:20.471Z,1.70
2022-09-12T15:30:51.976Z,1.40
2022-09-12T15:33:20.967Z,1.60
2022-09-12T15:35:47.562Z,1.50
2022-09-12T15:38:14.412Z,1.75
2022-09-12T15:40:41.114Z,1.40
2022-09-12T15:43:07.953Z,1.60
2022-09-12T15:45:35.331Z,1.63
2022-09-12T15:48:03.381Z,2.00
2022-09-12T15:50:30.759Z,1.58
2022-09-12T15:52:57.754Z,1.75
2022-09-12T15:55:28.100Z,1.40
2022-09-12T15:57:55.131Z,1.80
2022-09-12T16:00:21.999Z,1.70
2022-09-12T16:02:51.283Z,1.50
2022-09-12T16:05:26.416Z,1.45
2022-09-12T16:07:54.874Z,1.67
2022-09-12T16:10:24.881Z,1.60
2022-09-12T16:12:51.735Z,1.60
2022-09-12T16:15:23.089Z,1.27
2022-09-12T16:17:50.120Z,1.55
2022-09-12T16:20:17.275Z,1.60
2022-09-12T16:22:43.925Z,1.48
2022-09-12T16:25:10.737Z,1.60
2022-09-12T16:27:37.776Z,1.95
2022-09-12T16:30:07.157Z,1.50
2022-09-12T16:32:33.785Z,1.60
2022-09-12T16:35:00.590Z,1.60
2022-09-12T16:37:27.184Z,1.60
2022-09-12T16:39:54.124Z,1.60
2022-09-12T16:42:20.702Z,1.40
2022-09-12T16:44:47.367Z,1.50
2022-09-12T16:47:14.985Z,1.50
2022-09-12T16:49:41.540Z,1.80
2022-09-12T16:52:08.370Z,2.22
2022-09-12T16:54:34.994Z,1.92
2022-09-12T16:57:01.698Z,2.35
2022-09-12T16:59:28.300Z,2.05
2022-09-12T17:01:55.163Z,2.03
2022-09-12T17:04:23.690Z,2.50
2022-09-12T17:06:51.665Z,2.38
2022-09-12T17:09:18.766Z,2.35
2022-09-12T17:11:47.518Z,2.13
2022-09-12T17:14:14.335Z,2.15
2022-09-12T17:16:49.285Z,2.30
2022-09-12T17:19:22.159Z,1.90
2022-09-12T17:21:51.540Z,1.63
2022-09-12T17:24:18.415Z,1.85
2022-09-12T17:26:45.999Z,2.13
2022-09-12T17:29:14.063Z,1.80
2022-09-12T17:31:41.670Z,1.70
2022-09-12T17:34:09.190Z,1.67
2022-09-12T17:36:37.310Z,1.80
2022-09-12T17:39:04.467Z,1.50
2022-09-12T17:41:31.958Z,1.60
2022-09-12T17:44:00.200Z,5.15
2022-09-12T17:46:34.940Z,3.15
2022-09-12T17:49:05.151Z,2.47
2022-09-12T17:51:32.380Z,1.90
2022-09-12T17:54:01.498Z,2.20
2022-09-12T17:56:30.855Z,2.03
2022-09-12T17:58:58.702Z,1.90
2022-09-12T18:01:46.451Z,1.95
2022-09-12T18:04:13.391Z,1.60
2022-09-12T18:06:40.916Z,1.50
2022-09-12T18:09:09.746Z,1.70
2022-09-12T18:11:36.664Z,1.80
2022-09-12T18:14:03.402Z,1.83
2022-09-12T18:16:31.545Z,1.65
2022-09-12T18:19:01.574Z,1.63
2022-09-12T18:21:29.214Z,1.48
2022-09-12T18:23:59.805Z,2.00
2022-09-12T18:26:28.661Z,1.90
2022-09-12T18:28:56.023Z,1.65
2022-09-12T18:31:25.785Z,1.52
2022-09-12T18:33:53.037Z,1.60
2022-09-12T18:36:21.044Z,1.67
2022-09-12T18:38:48.720Z,1.77
2022-09-12T18:41:18.392Z,1.77
2022-09-12T18:43:46.243Z,1.40
2022-09-12T18:46:15.529Z,1.65
2022-09-12T18:48:42.763Z,1.67
2022-09-12T18:51:15.165Z,1.70
2022-09-12T18:53:42.991Z,1.20
2022-09-12T18:56:13.547Z,1.52
2022-09-12T18:58:42.726Z,1.60
2022-09-12T19:01:17.869Z,1.70
2022-09-12T19:03:45.806Z,1.50
2022-09-12T19:06:17.849Z,1.73
2022-09-12T19:11:12.845Z,2.35
2022-09-12T19:13:42.418Z,1.55
2022-09-12T19:16:12.110Z,1.85
2022-09-12T19:18:39.972Z,1.70
2022-09-12T19:21:10.724Z,1.50
2022-09-12T19:23:37.974Z,1.90
2022-09-12T19:26:07.697Z,1.42
2022-09-12T19:28:35.025Z,1.42
2022-09-12T19:31:05.589Z,1.90
2022-09-12T19:33:32.260Z,1.80
2022-09-12T19:36:17.546Z,1.75
2022-09-12T19:38:53.778Z,1.70
2022-09-12T19:41:20.565Z,1.80
2022-09-12T19:43:47.433Z,1.73
2022-09-12T19:46:18.703Z,1.70
2022-09-12T19:48:46.386Z,1.58
2022-09-12T19:51:14.158Z,1.90
2022-09-12T19:53:42.310Z,2.00
2022-09-12T19:56:10.463Z,1.98
2022-09-12T19:58:39.096Z,1.90
2022-09-12T20:01:10.303Z,2.00
2022-09-12T20:03:41.151Z,1.80
2022-09-12T20:06:10.088Z,2.20
2022-09-12T20:08:38.046Z,1.65
2022-09-12T20:11:04.759Z,1.73
2022-09-12T20:13:31.355Z,1.60
2022-09-12T20:16:07.328Z,2.15
2022-09-12T20:18:34.593Z,1.70
2022-09-12T20:21:14.742Z,1.70
2022-09-12T20:23:41.503Z,1.70
2022-09-12T20:26:09.570Z,1.60
2022-09-12T20:28:37.316Z,1.80
2022-09-12T20:31:11.760Z,1.70
2022-09-12T20:33:41.707Z,1.70
2022-09-12T20:36:13.975Z,2.13
2022-09-12T20:38:41.938Z,1.90
2022-09-12T20:41:10.143Z,1.80
2022-09-12T20:43:38.716Z,1.60
2022-09-12T20:46:13.831Z,1.88
2022-09-12T20:48:43.216Z,1.60
2022-09-12T20:51:11.627Z,2.00
2022-09-12T20:53:41.019Z,1.80
2022-09-12T20:56:10.327Z,2.03
2022-09-12T20:58:41.680Z,1.80
2022-09-12T21:01:13.260Z,1.98
2022-09-12T21:03:46.391Z,2.33
2022-09-12T21:06:17.210Z,2.10
2022-09-12T21:08:44.763Z,2.03
2022-09-12T21:11:11.524Z,1.70
2022-09-12T21:13:38.349Z,2.00
2022-09-12T21:16:12.002Z,2.20
2022-09-12T21:18:38.831Z,2.47
2022-09-12T21:21:05.994Z,2.67
2022-09-12T21:23:33.673Z,2.38
2022-09-12T21:26:02.139Z,2.40
2022-09-12T21:28:29.594Z,2.30
2022-09-12T21:30:56.707Z,2.10
2022-09-12T21:33:25.541Z,2.45
2022-09-12T21:35:53.331Z,1.70
2022-09-12T21:38:21.510Z,2.22
2022-09-12T21:40:48.356Z,1.98
2022-09-12T21:43:15.409Z,2.08
2022-09-12T21:45:42.205Z,2.70
2022-09-12T21:48:08.783Z,2.30
2022-09-12T21:50:35.526Z,2.15
2022-09-12T21:53:02.278Z,2.08
2022-09-12T21:55:29.206Z,2.50
2022-09-12T21:57:55.865Z,2.20
2022-09-12T22:00:23.021Z,2.20
2022-09-12T22:02:49.942Z,2.25
2022-09-12T22:05:17.382Z,2.38
2022-09-12T22:07:44.564Z,2.33
2022-09-12T22:10:11.300Z,2.30
2022-09-12T22:12:38.702Z,2.75
2022-09-12T22:15:35.958Z,2.70
2022-09-12T22:17:54.447Z,2.40
2022-09-12T22:20:21.101Z,2.47
2022-09-12T22:23:06.282Z,2.50
2022-09-12T22:25:32.979Z,2.95
2022-09-12T22:27:59.848Z,2.50
2022-09-12T22:30:27.402Z,2.97
2022-09-12T22:32:54.076Z,2.80
2022-09-12T22:35:21.082Z,2.88
2022-09-12T22:37:49.816Z,2.60
2022-09-12T22:40:16.759Z,2.92
2022-09-12T22:42:44.534Z,3.28
2022-09-12T22:45:11.482Z,3.08
2022-09-12T22:47:38.595Z,3.00
2022-09-12T22:50:06.039Z,3.22
2022-09-12T22:52:32.667Z,2.60
2022-09-12T22:54:59.458Z,2.63
2022-09-12T22:57:27.209Z,2.70
2022-09-12T22:59:53.764Z,2.65
2022-09-12T23:02:20.495Z,2.45
2022-09-12T23:04:47.127Z,2.75
2022-09-12T23:07:13.802Z,2.95
2022-09-12T23:09:40.461Z,3.10
2022-09-12T23:12:07.289Z,2.80
2022-09-12T23:14:34.301Z,2.85
2022-09-12T23:17:01.039Z,3.20
2022-09-12T23:19:27.602Z,2.60
2022-09-12T23:21:55.989Z,2.80
2022-09-12T23:24:22.808Z,2.78
2022-09-12T23:26:51.287Z,2.83
2022-09-12T23:29:18.159Z,2.38
2022-09-12T23:31:44.897Z,2.90
2022-09-12T23:34:12.864Z,2.80
2022-09-12T23:36:39.466Z,2.40
2022-09-12T23:39:06.261Z,2.63
2022-09-12T23:41:32.900Z,2.60
2022-09-12T23:43:59.657Z,2.45
2022-09-12T23:46:26.445Z,1.85
2022-09-12T23:48:55.869Z,2.30
2022-09-12T23:51:22.791Z,2.22
2022-09-12T23:53:50.242Z,2.28
2022-09-12T23:56:17.017Z,2.20
2022-09-12T23:58:43.844Z,1.80
